createdAt,value
2023-01-12T00:01:54.378Z,101729.59
2023-01-12T00:04:21.423Z,101731.53
2023-01-12T00:06:48.629Z,101728.19
2023-01-12T00:09:15.458Z,101709.28
2023-01-12T00:11:42.362Z,101689.94
2023-01-12T00:14:09.641Z,101681.53
2023-01-12T00:16:43.590Z,101700.97
2023-01-12T00:19:18.898Z,101736.59
2023-01-12T00:21:59.612Z,101786.00
2023-01-12T00:24:29.787Z,101803.25
2023-01-12T00:26:58.458Z,101822.09
2023-01-12T00:29:26.240Z,101834.75
2023-01-12T00:31:54.687Z,101852.25
2023-01-12T00:34:22.072Z,101859.72
2023-01-12T00:36:49.177Z,101873.13
2023-01-12T00:39:16.733Z,101873.19
2023-01-12T00:42:03.006Z,101878.84
2023-01-12T00:44:48.942Z,101877.03
2023-01-12T00:47:16.562Z,101894.66
2023-01-12T00:49:43.623Z,101899.41
2023-01-12T00:52:24.952Z,101905.38
2023-01-12T00:54:56.531Z,101913.94
2023-01-12T00:57:23.306Z,101914.88
2023-01-12T00:59:50.727Z,101919.34
2023-01-12T01:02:17.657Z,101924.50
2023-01-12T01:04:44.594Z,101933.63
2023-01-12T01:07:13.589Z,101940.50
2023-01-12T01:09:40.440Z,101942.19
2023-01-12T01:12:07.596Z,101949.91
2023-01-12T01:14:34.335Z,101946.34
2023-01-12T01:17:01.024Z,101951.38
2023-01-12T01:19:27.789Z,101932.09
2023-01-12T01:21:54.484Z,101930.19
2023-01-12T01:24:21.274Z,101935.97
2023-01-12T01:26:49.864Z,101950.34
2023-01-12T01:29:17.093Z,101948.66
2023-01-12T01:31:43.799Z,101935.13
2023-01-12T01:34:10.590Z,101946.53
2023-01-12T01:36:37.598Z,101945.63
2023-01-12T01:39:05.333Z,101944.06
2023-01-12T01:41:33.452Z,101943.06
2023-01-12T01:44:02.704Z,101951.00
2023-01-12T01:46:49.330Z,101956.16
2023-01-12T01:49:25.220Z,101951.16
2023-01-12T01:51:56.347Z,101948.44
2023-01-12T01:54:23.717Z,101952.75
2023-01-12T01:56:56.089Z,101950.31
2023-01-12T01:59:27.065Z,101956.97
2023-01-12T02:01:54.359Z,101949.19
2023-01-12T02:04:21.924Z,101938.81
2023-01-12T02:06:50.087Z,101937.00
2023-01-12T02:09:21.451Z,101941.16
2023-01-12T02:12:08.615Z,101943.69
2023-01-12T02:14:53.836Z,101948.94
2023-01-12T02:17:29.451Z,101938.81
2023-01-12T02:20:02.423Z,101936.25
2023-01-12T02:23:05.979Z,101940.38
2023-01-12T02:26:11.317Z,101952.28
2023-01-12T02:29:05.973Z,101963.81
2023-01-12T02:31:48.366Z,101957.97
2023-01-12T02:34:42.377Z,101955.41
2023-01-12T02:37:50.514Z,101945.84
2023-01-12T02:40:23.596Z,101944.91
2023-01-12T02:43:03.405Z,101942.50
2023-01-12T02:45:43.134Z,101941.53
2023-01-12T02:48:51.559Z,101932.72
2023-01-12T02:51:22.737Z,101926.75
2023-01-12T02:53:55.420Z,101936.25
2023-01-12T02:56:33.264Z,101930.38
2023-01-12T02:59:06.575Z,101940.31
2023-01-12T03:01:34.264Z,101935.88
2023-01-12T03:04:06.121Z,101930.03
2023-01-12T03:06:45.595Z,101927.06
2023-01-12T03:09:16.209Z,101937.69
2023-01-12T03:11:46.959Z,101940.59
2023-01-12T03:14:15.523Z,101926.31
2023-01-12T03:16:42.538Z,101949.59
2023-01-12T03:19:15.916Z,101946.81
2023-01-12T03:21:51.876Z,101947.25
2023-01-12T03:24:32.801Z,101951.91
2023-01-12T03:27:04.762Z,101956.25
2023-01-12T03:29:47.444Z,101961.13
2023-01-12T03:32:14.423Z,101972.34
2023-01-12T03:34:41.142Z,101968.78
2023-01-12T03:37:07.846Z,101962.84
2023-01-12T03:39:40.478Z,101963.00
2023-01-12T03:42:22.297Z,101961.41
2023-01-12T03:44:51.882Z,101959.44
2023-01-12T03:47:24.508Z,101965.13
2023-01-12T03:49:55.540Z,101959.09
2023-01-12T03:52:22.981Z,101969.44
2023-01-12T03:54:52.017Z,101967.66
2023-01-12T03:57:20.011Z,101977.97
2023-01-12T03:59:46.841Z,101975.47
2023-01-12T04:02:13.553Z,101978.59
2023-01-12T04:04:40.652Z,101991.06
2023-01-12T04:07:07.470Z,101999.69
2023-01-12T04:09:34.300Z,102001.28
2023-01-12T04:12:13.477Z,102004.50
2023-01-12T04:14:42.846Z,102002.63
2023-01-12T04:17:13.349Z,102011.09
2023-01-12T04:19:40.581Z,102020.09
2023-01-12T04:22:27.039Z,102018.19
2023-01-12T04:24:53.830Z,102008.56
2023-01-12T04:27:20.519Z,102020.81
2023-01-12T04:29:47.299Z,102022.91
2023-01-12T04:32:14.074Z,102040.09
2023-01-12T04:34:41.082Z,102035.88
2023-01-12T04:37:07.875Z,102035.72
2023-01-12T04:39:34.679Z,102029.66
2023-01-12T04:42:01.409Z,102026.50
2023-01-12T04:44:28.208Z,102025.75
2023-01-12T04:46:54.901Z,102039.56
2023-01-12T04:49:21.698Z,102048.41
2023-01-12T04:51:48.463Z,102046.63
2023-01-12T04:54:15.352Z,102041.75
2023-01-12T04:56:42.053Z,102057.56
2023-01-12T04:59:10.713Z,102055.63
2023-01-12T05:01:39.100Z,102053.22
2023-01-12T05:04:07.896Z,102047.81
2023-01-12T05:06:42.726Z,102056.13
2023-01-12T05:09:28.313Z,102060.19
2023-01-12T05:11:55.116Z,102051.34
2023-01-12T05:14:21.869Z,102058.44
2023-01-12T05:16:48.753Z,102061.50
2023-01-12T05:19:17.561Z,102059.72
2023-01-12T05:21:44.386Z,102058.53
2023-01-12T05:24:11.180Z,102064.09
2023-01-12T05:26:37.963Z,102065.41
2023-01-12T05:29:04.688Z,102062.25
2023-01-12T05:31:34.171Z,102070.59
2023-01-12T05:34:00.993Z,102066.31
2023-01-12T05:36:27.753Z,102068.91
2023-01-12T05:38:54.492Z,102071.13
2023-01-12T05:41:23.078Z,102060.22
2023-01-12T05:43:52.792Z,102050.84
2023-01-12T05:46:33.335Z,102043.44
2023-01-12T05:49:00.140Z,102059.41
2023-01-12T05:51:27.746Z,102062.56
2023-01-12T05:53:55.221Z,102062.63
2023-01-12T05:56:25.972Z,102069.16
2023-01-12T05:58:58.688Z,102069.59
2023-01-12T06:01:26.464Z,102064.84
2023-01-12T06:03:55.539Z,102060.94
2023-01-12T06:06:24.409Z,102064.53
2023-01-12T06:08:52.767Z,102062.09
2023-01-12T06:11:39.926Z,102058.47
2023-01-12T06:14:07.986Z,102060.31
2023-01-12T06:16:38.884Z,102061.09
2023-01-12T06:19:06.001Z,102064.19
2023-01-12T06:21:33.999Z,102063.59
2023-01-12T06:24:00.922Z,102063.06
2023-01-12T06:26:28.045Z,102072.78
2023-01-12T06:28:55.133Z,102081.31
2023-01-12T06:31:22.040Z,102084.13
2023-01-12T06:33:48.958Z,102087.53
2023-01-12T06:36:15.674Z,102092.88
2023-01-12T06:38:43.381Z,102097.38
2023-01-12T06:41:32.481Z,102112.38
2023-01-12T06:43:59.798Z,102112.84
2023-01-12T06:46:27.673Z,102111.50
2023-01-12T06:49:00.570Z,102110.72
2023-01-12T06:51:27.701Z,102121.97
2023-01-12T06:53:55.040Z,102122.16
2023-01-12T06:56:22.228Z,102126.31
2023-01-12T06:58:49.027Z,102129.50
2023-01-12T07:01:17.149Z,102132.69
2023-01-12T07:03:44.222Z,102126.50
2023-01-12T07:06:11.380Z,102130.31
2023-01-12T07:08:38.086Z,102142.69
2023-01-12T07:11:08.191Z,102142.59
2023-01-12T07:13:35.472Z,102137.50
2023-01-12T07:16:02.453Z,102136.00
2023-01-12T07:18:30.427Z,102142.25
2023-01-12T07:20:57.410Z,102141.28
2023-01-12T07:23:24.294Z,102145.16
2023-01-12T07:25:51.063Z,102142.78
2023-01-12T07:28:17.972Z,102142.19
2023-01-12T07:30:44.669Z,102140.69
2023-01-12T07:33:13.530Z,102155.44
2023-01-12T07:35:41.304Z,102156.72
2023-01-12T07:38:08.753Z,102162.91
2023-01-12T07:40:35.990Z,102156.66
2023-01-12T07:43:05.864Z,102164.19
2023-01-12T07:45:33.266Z,102168.34
2023-01-12T07:48:00.108Z,102167.66
2023-01-12T07:50:28.444Z,102162.91
2023-01-12T07:52:55.466Z,102172.66
2023-01-12T07:55:22.290Z,102178.44
2023-01-12T07:58:01.285Z,102180.69
2023-01-12T08:00:28.662Z,102185.09
2023-01-12T08:03:03.082Z,102196.38
2023-01-12T08:05:30.001Z,102198.66
2023-01-12T08:07:56.847Z,102203.13
2023-01-12T08:10:23.661Z,102192.41
2023-01-12T08:12:51.489Z,102193.47
2023-01-12T08:15:18.599Z,102202.75
2023-01-12T08:17:54.564Z,102209.47
2023-01-12T08:20:30.022Z,102216.75
2023-01-12T08:23:01.182Z,102204.97
2023-01-12T08:25:35.400Z,102203.66
2023-01-12T08:28:08.135Z,102213.06
2023-01-12T08:30:35.525Z,102217.47
2023-01-12T08:33:02.848Z,102223.69
2023-01-12T08:35:34.435Z,102220.06
2023-01-12T08:38:01.552Z,102224.91
2023-01-12T08:40:48.282Z,102234.13
2023-01-12T08:43:35.093Z,102233.50
2023-01-12T08:46:07.979Z,102235.69
2023-01-12T08:48:36.389Z,102236.13
2023-01-12T08:51:04.331Z,102233.88
2023-01-12T08:53:31.272Z,102242.91
2023-01-12T08:55:58.155Z,102242.91
2023-01-12T08:58:25.059Z,102255.84
2023-01-12T09:00:52.357Z,102261.97
2023-01-12T09:03:19.287Z,102263.28
2023-01-12T09:05:47.922Z,102262.41
2023-01-12T09:08:14.939Z,102258.19
2023-01-12T09:10:41.735Z,102259.44
2023-01-12T09:13:10.100Z,102259.59
2023-01-12T09:15:36.845Z,102258.28
2023-01-12T09:18:03.715Z,102265.44
2023-01-12T09:20:30.575Z,102269.91
2023-01-12T09:22:57.355Z,102266.97
2023-01-12T09:25:24.120Z,102263.94
2023-01-12T09:27:51.040Z,102267.59
2023-01-12T09:30:18.566Z,102278.63
2023-01-12T09:32:45.366Z,102283.09
2023-01-12T09:35:12.131Z,102279.09
2023-01-12T09:37:40.675Z,102281.41
2023-01-12T09:40:10.399Z,102278.34
2023-01-12T09:42:55.661Z,102281.41
2023-01-12T09:45:42.297Z,102283.97
2023-01-12T09:48:11.834Z,102283.88
2023-01-12T09:50:45.110Z,102284.22
2023-01-12T09:53:27.717Z,102288.31
2023-01-12T09:56:09.365Z,102287.19
2023-01-12T09:59:02.625Z,102290.78
2023-01-12T10:01:30.434Z,102286.53
2023-01-12T10:04:01.593Z,102280.63
2023-01-12T10:06:29.034Z,102278.38
2023-01-12T10:09:01.868Z,102271.94
2023-01-12T10:11:54.117Z,102280.63
2023-01-12T10:14:43.835Z,102271.06
2023-01-12T10:17:13.550Z,102278.66
2023-01-12T10:20:03.355Z,102269.38
2023-01-12T10:22:37.899Z,102281.00
2023-01-12T10:25:05.329Z,102273.63
2023-01-12T10:27:38.219Z,102263.97
2023-01-12T10:30:13.790Z,102253.63
2023-01-12T10:32:42.215Z,102252.97
2023-01-12T10:35:18.804Z,102253.94
2023-01-12T10:37:48.081Z,102258.41
2023-01-12T10:40:28.764Z,102250.84
2023-01-12T10:43:21.726Z,102253.56
2023-01-12T10:45:54.628Z,102250.16
2023-01-12T10:48:22.986Z,102241.13
2023-01-12T10:51:02.351Z,102234.88
2023-01-12T10:54:12.630Z,102232.41
2023-01-12T10:56:52.885Z,102239.66
2023-01-12T10:59:22.211Z,102230.47
2023-01-12T11:01:53.074Z,102232.88
2023-01-12T11:04:21.134Z,102239.19
2023-01-12T11:07:08.983Z,102224.56
2023-01-12T11:12:05.244Z,102220.03
2023-01-12T11:14:39.450Z,102232.16
2023-01-12T11:17:14.987Z,102237.41
2023-01-12T11:19:44.351Z,102244.94
2023-01-12T11:22:18.238Z,102254.44
2023-01-12T11:25:19.428Z,102257.78
2023-01-12T11:27:58.692Z,102262.25
2023-01-12T11:30:34.837Z,102266.38
2023-01-12T11:33:20.213Z,102264.63
2023-01-12T11:36:11.964Z,102266.09
2023-01-12T11:38:52.306Z,102256.38
2023-01-12T11:41:29.323Z,102262.25
2023-01-12T11:44:26.657Z,102251.13
2023-01-12T11:47:05.246Z,102247.47
2023-01-12T11:49:31.989Z,102239.25
2023-01-12T11:51:59.960Z,102232.78
2023-01-12T11:54:28.885Z,102231.69
2023-01-12T11:57:10.406Z,102238.44
2023-01-12T11:59:58.679Z,102239.91
2023-01-12T12:02:33.285Z,102241.06
2023-01-12T12:05:16.089Z,102242.16
2023-01-12T12:08:11.843Z,102240.16
2023-01-12T12:11:19.429Z,102235.22
2023-01-12T12:13:49.239Z,102237.03
2023-01-12T12:16:42.240Z,102230.19
2023-01-12T12:19:35.669Z,102224.28
2023-01-12T12:22:02.663Z,102226.03
2023-01-12T12:24:35.484Z,102228.78
2023-01-12T12:27:14.772Z,102232.97
2023-01-12T12:30:02.243Z,102230.53
2023-01-12T12:32:45.772Z,102230.13
2023-01-12T12:35:31.011Z,102227.34
2023-01-12T12:38:04.198Z,102229.41
2023-01-12T12:41:08.274Z,102224.06
2023-01-12T12:43:55.934Z,102217.69
2023-01-12T12:46:43.730Z,102225.63
2023-01-12T12:49:29.185Z,102217.97
2023-01-12T12:51:58.975Z,102205.28
2023-01-12T12:54:26.925Z,102203.28
2023-01-12T12:56:55.172Z,102207.09
2023-01-12T12:59:31.125Z,102200.19
2023-01-12T13:02:02.713Z,102191.34
2023-01-12T13:04:42.305Z,102200.63
2023-01-12T13:07:15.371Z,102191.97
2023-01-12T13:09:43.286Z,102191.88
2023-01-12T13:12:39.326Z,102185.72
2023-01-12T13:15:20.056Z,102177.41
2023-01-12T13:17:49.184Z,102178.56
2023-01-12T13:20:24.897Z,102175.47
2023-01-12T13:22:53.107Z,102164.00
2023-01-12T13:25:20.608Z,102173.53
2023-01-12T13:27:50.460Z,102168.50
2023-01-12T13:30:29.625Z,102176.53
2023-01-12T13:33:11.580Z,102176.75
2023-01-12T13:35:40.312Z,102176.00
2023-01-12T13:38:34.306Z,102168.78
2023-01-12T13:41:14.066Z,102178.63
2023-01-12T13:43:58.655Z,102190.38
2023-01-12T13:46:47.646Z,102197.50
2023-01-12T13:49:28.017Z,102199.06
2023-01-12T13:52:06.674Z,102201.72
2023-01-12T13:54:34.758Z,102194.31
2023-01-12T13:57:18.186Z,102192.16
2023-01-12T14:00:00.602Z,102193.44
2023-01-12T14:02:32.278Z,102193.56
2023-01-12T14:05:38.880Z,102190.44
2023-01-12T14:08:11.839Z,102190.78
2023-01-12T14:11:05.185Z,102192.50
2023-01-12T14:13:53.632Z,102187.38
2023-01-12T14:16:39.322Z,102184.84
2023-01-12T14:19:27.287Z,102184.72
2023-01-12T14:22:00.558Z,102181.69
2023-01-12T14:24:27.358Z,102176.28
2023-01-12T14:26:54.297Z,102180.56
2023-01-12T14:29:21.410Z,102182.25
2023-01-12T14:31:50.924Z,102189.66
2023-01-12T14:34:29.097Z,102187.09
2023-01-12T14:36:57.180Z,102184.16
2023-01-12T14:40:36.977Z,102188.78
2023-01-12T14:43:23.341Z,102181.59
2023-01-12T14:46:19.724Z,102175.31
2023-01-12T14:49:01.668Z,102172.88
2023-01-12T14:51:36.672Z,102177.78
2023-01-12T14:54:18.938Z,102173.28
2023-01-12T14:57:03.737Z,102180.75
2023-01-12T14:59:33.984Z,102168.88
2023-01-12T15:02:25.535Z,102163.50
2023-01-12T15:05:04.483Z,102168.47
2023-01-12T15:08:01.525Z,102182.09
2023-01-12T15:10:33.211Z,102185.44
2023-01-12T15:13:32.945Z,102191.09
2023-01-12T15:16:19.358Z,102190.81
2023-01-12T15:19:05.029Z,102192.97
2023-01-12T15:21:51.828Z,102191.69
2023-01-12T15:24:42.643Z,102201.66
2023-01-12T15:27:12.196Z,102197.94
2023-01-12T15:29:39.030Z,102198.63
2023-01-12T15:32:14.543Z,102194.78
2023-01-12T15:34:41.385Z,102199.66
2023-01-12T15:37:14.945Z,102205.53
2023-01-12T15:39:42.003Z,102192.53
2023-01-12T15:42:16.854Z,102201.81
2023-01-12T15:44:44.810Z,102202.44
2023-01-12T15:47:13.336Z,102198.91
2023-01-12T15:49:42.006Z,102203.72
2023-01-12T15:52:15.705Z,102210.25
2023-01-12T15:54:42.924Z,102200.53
2023-01-12T15:57:13.965Z,102206.59
2023-01-12T15:59:40.997Z,102206.47
2023-01-12T16:02:23.061Z,102206.06
2023-01-12T16:04:50.023Z,102205.94
2023-01-12T16:07:16.784Z,102205.94
2023-01-12T16:09:45.832Z,102210.63
2023-01-12T16:12:12.782Z,102210.06
2023-01-12T16:14:39.877Z,102211.81
2023-01-12T16:17:07.373Z,102215.25
2023-01-12T16:19:41.230Z,102218.75
2023-01-12T16:22:15.514Z,102219.44
2023-01-12T16:24:44.158Z,102218.38
2023-01-12T16:27:11.202Z,102218.09
2023-01-12T16:29:38.128Z,102224.84
2023-01-12T16:32:05.675Z,102235.59
2023-01-12T16:34:33.915Z,102239.63
2023-01-12T16:37:01.156Z,102239.16
2023-01-12T16:39:28.378Z,102240.53
2023-01-12T16:42:03.450Z,102241.03
2023-01-12T16:44:32.496Z,102238.53
2023-01-12T16:46:59.449Z,102234.25
2023-01-12T16:49:26.527Z,102240.06
2023-01-12T16:51:53.503Z,102235.91
2023-01-12T16:54:21.058Z,102239.47
2023-01-12T16:56:47.944Z,102230.22
2023-01-12T16:59:14.942Z,102233.19
2023-01-12T17:01:42.010Z,102239.31
2023-01-12T17:04:10.163Z,102235.59
2023-01-12T17:06:40.187Z,102244.66
2023-01-12T17:09:07.454Z,102245.06
2023-01-12T17:11:35.378Z,102244.44
2023-01-12T17:14:22.806Z,102232.94
2023-01-12T17:16:58.861Z,102234.84
2023-01-12T17:19:27.626Z,102230.56
2023-01-12T17:21:55.245Z,102231.38
2023-01-12T17:24:23.117Z,102227.13
2023-01-12T17:26:52.854Z,102228.41
2023-01-12T17:29:22.419Z,102222.72
2023-01-12T17:31:49.643Z,102227.09
2023-01-12T17:34:16.918Z,102220.06
2023-01-12T17:36:43.827Z,102225.59
2023-01-12T17:39:11.023Z,102225.44
2023-01-12T17:41:57.090Z,102233.91
2023-01-12T17:44:24.052Z,102238.72
2023-01-12T17:46:51.241Z,102242.53
2023-01-12T17:49:19.134Z,102239.56
2023-01-12T17:51:47.278Z,102244.47
2023-01-12T17:54:15.424Z,102246.22
2023-01-12T17:56:42.586Z,102250.44
2023-01-12T17:59:18.231Z,102247.03
2023-01-12T18:01:46.475Z,102252.84
2023-01-12T18:04:13.714Z,102244.78
2023-01-12T18:06:40.832Z,102248.13
2023-01-12T18:09:10.106Z,102246.59
2023-01-12T18:11:37.733Z,102249.56
2023-01-12T18:14:05.442Z,102254.28
2023-01-12T18:16:33.503Z,102255.56
2023-01-12T18:19:04.651Z,102257.72
2023-01-12T18:21:31.603Z,102261.84
2023-01-12T18:23:58.696Z,102260.28
2023-01-12T18:26:28.064Z,102262.97
2023-01-12T18:28:56.657Z,102263.94
2023-01-12T18:31:26.119Z,102256.91
2023-01-12T18:34:02.572Z,102262.81
2023-01-12T18:36:30.721Z,102257.47
2023-01-12T18:38:57.616Z,102254.69
2023-01-12T18:41:43.266Z,102256.66
2023-01-12T18:44:10.553Z,102249.72
2023-01-12T18:47:11.025Z,102249.38
2023-01-12T18:49:40.384Z,102236.88
2023-01-12T18:52:30.013Z,102228.31
2023-01-12T18:54:57.007Z,102242.84
2023-01-12T18:57:29.436Z,102228.97
2023-01-12T19:00:00.664Z,102227.94
2023-01-12T19:02:27.889Z,102238.84
2023-01-12T19:05:21.606Z,102229.50
2023-01-12T19:07:57.913Z,102228.97
2023-01-12T19:10:25.715Z,102229.13
2023-01-12T19:13:12.467Z,102228.16
2023-01-12T19:16:00.793Z,102234.94
2023-01-12T19:18:28.008Z,102236.19
2023-01-12T19:21:15.036Z,102227.88
2023-01-12T19:24:00.819Z,102228.84
2023-01-12T19:26:45.880Z,102236.84
2023-01-12T19:29:12.781Z,102246.97
2023-01-12T19:31:40.375Z,102242.75
2023-01-12T19:34:07.537Z,102241.13
2023-01-12T19:36:34.397Z,102237.06
2023-01-12T19:39:06.552Z,102253.72
2023-01-12T19:41:52.946Z,102249.75
2023-01-12T19:44:20.123Z,102247.31
2023-01-12T19:46:47.253Z,102257.09
2023-01-12T19:49:16.937Z,102258.03
2023-01-12T19:51:46.315Z,102255.81
2023-01-12T19:54:13.771Z,102256.78
2023-01-12T19:56:41.081Z,102260.31
2023-01-12T19:59:08.100Z,102245.63
2023-01-12T20:01:37.551Z,102259.41
2023-01-12T20:04:04.555Z,102246.81
2023-01-12T20:06:31.603Z,102247.16
2023-01-12T20:08:58.687Z,102245.53
2023-01-12T20:11:25.524Z,102236.19
2023-01-12T20:13:52.796Z,102233.75
2023-01-12T20:16:20.387Z,102240.44
2023-01-12T20:18:48.757Z,102231.19
2023-01-12T20:21:15.635Z,102225.06
2023-01-12T20:23:42.617Z,102227.09
2023-01-12T20:26:11.433Z,102229.22
2023-01-12T20:28:38.977Z,102237.84
2023-01-12T20:31:13.530Z,102230.09
2023-01-12T20:33:40.882Z,102236.31
2023-01-12T20:36:13.488Z,102233.44
2023-01-12T20:38:41.202Z,102228.38
2023-01-12T20:41:08.744Z,102230.38
2023-01-12T20:43:36.677Z,102230.13
2023-01-12T20:46:08.702Z,102234.19
2023-01-12T20:48:36.494Z,102243.06
2023-01-12T20:51:11.001Z,102232.31
2023-01-12T20:53:38.536Z,102235.69
2023-01-12T20:56:06.641Z,102243.16
2023-01-12T20:58:34.432Z,102238.22
2023-01-12T21:01:01.875Z,102234.16
2023-01-12T21:03:29.223Z,102234.81
2023-01-12T21:05:56.448Z,102242.56
2023-01-12T21:08:23.470Z,102253.81
2023-01-12T21:10:53.165Z,102246.44
2023-01-12T21:13:21.236Z,102255.75
2023-01-12T21:15:48.134Z,102264.41
2023-01-12T21:18:15.189Z,102253.66
2023-01-12T21:20:45.026Z,102249.59
2023-01-12T21:23:12.033Z,102242.47
2023-01-12T21:25:43.885Z,102233.19
2023-01-12T21:28:20.994Z,102229.88
2023-01-12T21:30:55.580Z,102225.91
2023-01-12T21:34:20.864Z,102226.84
2023-01-12T21:36:42.992Z,102229.78
2023-01-12T21:45:21.295Z,102219.16
2023-01-12T21:48:33.313Z,102208.19
2023-01-12T21:51:41.910Z,102227.59
2023-01-12T21:54:21.127Z,102216.28
2023-01-12T21:56:56.923Z,102210.53
2023-01-12T21:59:33.561Z,102215.13
2023-01-12T22:02:31.334Z,102213.28
2023-01-12T22:05:26.953Z,102210.31
2023-01-12T22:07:58.354Z,102204.91
2023-01-12T22:10:36.189Z,102208.25
2023-01-12T22:13:30.091Z,102206.03
2023-01-12T22:16:13.660Z,102197.56
2023-01-12T22:19:04.548Z,102202.75
2023-01-12T22:21:53.898Z,102207.84
2023-01-12T22:27:54.682Z,102223.41
2023-01-12T23:59:39.512Z,102199.63
